PWSweather.com
Personal Weather Stations
Station Observations
SR95407
Roseland, Santa Rosa, CA 95407

RoselandSanta Rosa, CA 95407

Lat: 38.428, Lon: -122.76

Elevation: 98

Station Type: AcuRite 5 in 1 Weather Station

Latest ConditionsUpdated 4:04:05 AM PST Sunday, Jan 20, 2019
Currently Today's Max Today's Min Today's Average
Temperature 56.7°F13.7°C 56.7°F13.7°C 55.6°F13.1°C 56.1°F13.4°C
Dew Point 55.3°F12.9°C 55.3°F12.9°C 53.6°F12.0°C 54.2°F12.3°C
Winds 0.9 mph W1.4 kmh W 3.4 mph -5.5 kmh - - 1.3 mph 2.1 kmh
Wind Gusts 1.7 mph2.7 kmh 4.7 mph7.6 kmh - -
Humidity 95% 95% 93% 93%
Pressure 30.12 in1020.0 mb 30.18 in1022.0 mb 30.12 in1020.0 mb -
Precipitation - 0.08 in2.0 mm - -
Hour Temp Dew Point Humidity Winds Wind Gusts Pressure Precip Precip Rate Daily Precip Total
04:04 AM 56.7°F13.7°C 55.3°F12.9°C 95% 0.9 mph W1.4 kmh W 1.7 mph2.7 kmh 30.12 in1020.0 mb 0.01 in0.3 mm 0.00 in0.0 mm 0.08 in2.0 mm
04:02 AM 56.7°F13.7°C 55.3°F12.9°C 95% 0.8 mph NNW1.3 kmh NNW -- 30.12 in1020.0 mb 0.01 in0.3 mm 0.00 in0.0 mm 0.08 in2.0 mm
04:01 AM 56.7°F13.7°C 55.3°F12.9°C 95% 0.5 mph NE0.8 kmh NE -- 30.12 in1020.0 mb 0.01 in0.3 mm 0.00 in0.0 mm 0.08 in2.0 mm
04:00 AM 56.7°F13.7°C 55.3°F12.9°C 95% 0.5 mph NNE0.8 kmh NNE 2.2 mph3.5 kmh 30.12 in1020.0 mb 0.01 in0.3 mm 0.00 in0.0 mm 0.08 in2.0 mm
03:59 AM 56.7°F13.7°C 55.3°F12.9°C 95% 0.4 mph S0.6 kmh S -- 30.12 in1020.0 mb 0.01 in0.3 mm 0.00 in0.0 mm 0.08 in2.0 mm
03:57 AM 56.7°F13.7°C 55.3°F12.9°C 95% 0.2 mph S0.3 kmh S -- 30.12 in1020.0 mb 0.01 in0.3 mm 0.00 in0.0 mm 0.08 in2.0 mm
03:56 AM 56.7°F13.7°C 55.3°F12.9°C 95% 0.4 mph SSE0.6 kmh SSE -- 30.12 in1020.0 mb 0.01 in0.3 mm 0.00 in0.0 mm 0.08 in2.0 mm
03:55 AM 56.7°F13.7°C 55.3°F12.9°C 95% 1.1 mph S1.8 kmh S -- 30.13 in1020.3 mb 0.01 in0.3 mm 0.00 in0.0 mm 0.08 in2.0 mm
03:54 AM 56.7°F13.7°C 55.3°F12.9°C 95% 1.9 mph ESE3.1 kmh ESE -- 30.13 in1020.3 mb 0.01 in0.3 mm 0.00 in0.0 mm 0.08 in2.0 mm
03:52 AM 56.7°F13.7°C 55.3°F12.9°C 95% 1.7 mph SSW2.7 kmh SSW 2.7 mph4.3 kmh 30.13 in1020.3 mb 0.01 in0.3 mm 0.00 in0.0 mm 0.08 in2.0 mm
03:51 AM 56.7°F13.7°C 55.3°F12.9°C 95% 1.0 mph SSE1.6 kmh SSE -- 30.13 in1020.3 mb 0.01 in0.3 mm 0.00 in0.0 mm 0.08 in2.0 mm
03:50 AM 56.7°F13.7°C 55.3°F12.9°C 95% 0.2 mph S0.3 kmh S 1.1 mph1.8 kmh 30.13 in1020.3 mb 0.02 in0.5 mm 0.00 in0.0 mm 0.08 in2.0 mm
03:49 AM 56.7°F13.7°C 55.3°F12.9°C 95% 0.4 mph SSE0.6 kmh SSE 1.7 mph2.7 kmh 30.13 in1020.3 mb 0.02 in0.5 mm 0.00 in0.0 mm 0.08 in2.0 mm
03:47 AM 56.7°F13.7°C 55.3°F12.9°C 95% 1.3 mph S2.1 kmh S -- 30.13 in1020.3 mb 0.02 in0.5 mm 0.00 in0.0 mm 0.08 in2.0 mm
03:46 AM 56.7°F13.7°C 55.3°F12.9°C 95% 0.9 mph ESE1.4 kmh ESE 2.7 mph4.3 kmh 30.13 in1020.3 mb 0.02 in0.5 mm 0.00 in0.0 mm 0.08 in2.0 mm
03:45 AM 56.7°F13.7°C 55.3°F12.9°C 95% 0.2 mph ESE0.3 kmh ESE -- 30.13 in1020.3 mb 0.02 in0.5 mm 0.00 in0.0 mm 0.08 in2.0 mm
03:44 AM 56.7°F13.7°C 55.3°F12.9°C 95% 1.0 mph S1.6 kmh S -- 30.13 in1020.3 mb 0.02 in0.5 mm 0.00 in0.0 mm 0.08 in2.0 mm
03:42 AM 56.7°F13.7°C 55.0°F12.8°C 94% 2.5 mph ESE4.0 kmh ESE -- 30.13 in1020.3 mb 0.02 in0.5 mm 0.00 in0.0 mm 0.08 in2.0 mm
03:41 AM 56.7°F13.7°C 55.0°F12.8°C 94% 3.2 mph SSE5.1 kmh SSE -- 30.13 in1020.3 mb 0.02 in0.5 mm 0.00 in0.0 mm 0.08 in2.0 mm
03:40 AM 56.7°F13.7°C 55.0°F12.8°C 94% 3.4 mph ESE5.5 kmh ESE -- 30.13 in1020.3 mb 0.02 in0.5 mm 0.00 in0.0 mm 0.08 in2.0 mm
03:39 AM 56.5°F13.6°C 54.8°F12.7°C 94% 2.5 mph SSW4.0 kmh SSW -- 30.13 in1020.3 mb 0.02 in0.5 mm 0.00 in0.0 mm 0.08 in2.0 mm
03:37 AM 56.5°F13.6°C 54.8°F12.7°C 94% 2.5 mph SW4.0 kmh SW -- 30.13 in1020.3 mb 0.02 in0.5 mm 0.00 in0.0 mm 0.08 in2.0 mm
03:36 AM 56.5°F13.6°C 54.8°F12.7°C 94% 2.2 mph S3.5 kmh S -- 30.13 in1020.3 mb 0.02 in0.5 mm 0.00 in0.0 mm 0.08 in2.0 mm
03:35 AM 56.5°F13.6°C 54.8°F12.7°C 94% 2.6 mph NNE4.2 kmh NNE -- 30.13 in1020.3 mb 0.02 in0.5 mm 0.00 in0.0 mm 0.08 in2.0 mm
03:33 AM 56.5°F13.6°C 54.8°F12.7°C 94% 3.0 mph SSW4.8 kmh SSW -- 30.13 in1020.3 mb 0.02 in0.5 mm 0.00 in0.0 mm 0.08 in2.0 mm
03:32 AM 56.5°F13.6°C 54.8°F12.7°C 94% 2.9 mph S4.7 kmh S -- 30.13 in1020.3 mb 0.02 in0.5 mm 0.00 in0.0 mm 0.08 in2.0 mm
03:31 AM 56.5°F13.6°C 54.8°F12.7°C 94% 2.0 mph SSE3.2 kmh SSE 4.7 mph7.6 kmh 30.13 in1020.3 mb 0.02 in0.5 mm 0.00 in0.0 mm 0.08 in2.0 mm
03:30 AM 56.5°F13.6°C 54.8°F12.7°C 94% 1.9 mph ESE3.1 kmh ESE -- 30.13 in1020.3 mb 0.02 in0.5 mm 0.00 in0.0 mm 0.08 in2.0 mm
03:28 AM 56.5°F13.6°C 54.8°F12.7°C 94% 2.0 mph SSW3.2 kmh SSW -- 30.13 in1020.3 mb 0.02 in0.5 mm 0.00 in0.0 mm 0.08 in2.0 mm
03:27 AM 56.5°F13.6°C 54.8°F12.7°C 94% 1.8 mph ESE2.9 kmh ESE 3.2 mph5.1 kmh 30.13 in1020.3 mb 0.02 in0.5 mm 0.00 in0.0 mm 0.08 in2.0 mm
03:26 AM 56.5°F13.6°C 54.8°F12.7°C 94% 1.3 mph SE2.1 kmh SE -- 30.13 in1020.3 mb 0.02 in0.5 mm 0.00 in0.0 mm 0.08 in2.0 mm
03:25 AM 56.5°F13.6°C 54.8°F12.7°C 94% 1.4 mph S2.3 kmh S -- 30.13 in1020.3 mb 0.02 in0.5 mm 0.00 in0.0 mm 0.08 in2.0 mm
03:23 AM 56.5°F13.6°C 54.8°F12.7°C 94% 1.9 mph S3.1 kmh S -- 30.13 in1020.3 mb 0.02 in0.5 mm 0.60 in15.2 mm 0.08 in2.0 mm
03:22 AM 56.3°F13.5°C 54.6°F12.6°C 94% 1.9 mph S3.1 kmh S -- 30.13 in1020.3 mb 0.01 in0.3 mm 0.00 in0.0 mm 0.07 in1.8 mm
03:21 AM 56.3°F13.5°C 54.6°F12.6°C 94% 1.7 mph 2.7 kmh -- 30.13 in1020.3 mb 0.01 in0.3 mm 0.00 in0.0 mm 0.07 in1.8 mm
03:20 AM 56.3°F13.5°C 54.6°F12.6°C 94% 2.2 mph S3.5 kmh S -- 30.13 in1020.3 mb 0.01 in0.3 mm 0.00 in0.0 mm 0.07 in1.8 mm
03:18 AM 56.3°F13.5°C 54.6°F12.6°C 94% 2.5 mph W4.0 kmh W -- 30.14 in1020.7 mb 0.01 in0.3 mm 0.00 in0.0 mm 0.07 in1.8 mm
03:17 AM 56.3°F13.5°C 54.6°F12.6°C 94% 2.3 mph NNE3.7 kmh NNE -- 30.14 in1020.7 mb 0.01 in0.3 mm 0.00 in0.0 mm 0.07 in1.8 mm
03:16 AM 56.3°F13.5°C 54.6°F12.6°C 94% 2.2 mph NNE3.5 kmh NNE -- 30.14 in1020.7 mb 0.01 in0.3 mm 0.00 in0.0 mm 0.07 in1.8 mm
03:15 AM 56.3°F13.5°C 54.6°F12.6°C 94% 1.8 mph NNE2.9 kmh NNE -- 30.14 in1020.7 mb 0.01 in0.3 mm 0.00 in0.0 mm 0.07 in1.8 mm
03:13 AM 56.3°F13.5°C 54.6°F12.6°C 94% 1.5 mph NNE2.4 kmh NNE -- 30.14 in1020.7 mb 0.01 in0.3 mm 0.00 in0.0 mm 0.07 in1.8 mm
03:12 AM 56.3°F13.5°C 54.6°F12.6°C 94% 1.2 mph NW1.9 kmh NW -- 30.14 in1020.7 mb 0.01 in0.3 mm 0.00 in0.0 mm 0.07 in1.8 mm
03:11 AM 56.3°F13.5°C 54.6°F12.6°C 94% 1.0 mph WNW1.6 kmh WNW -- 30.14 in1020.7 mb 0.01 in0.3 mm 0.00 in0.0 mm 0.07 in1.8 mm
03:10 AM 56.1°F13.4°C 54.4°F12.4°C 94% 1.5 mph WSW2.4 kmh WSW -- 30.14 in1020.7 mb 0.01 in0.3 mm 0.00 in0.0 mm 0.07 in1.8 mm
03:08 AM 56.1°F13.4°C 54.4°F12.4°C 94% 0.7 mph NNW1.1 kmh NNW 2.2 mph3.5 kmh 30.14 in1020.7 mb 0.01 in0.3 mm 0.00 in0.0 mm 0.07 in1.8 mm
03:07 AM 56.1°F13.4°C 54.4°F12.4°C 94% 0.3 mph ESE0.5 kmh ESE -- 30.14 in1020.7 mb 0.01 in0.3 mm 0.00 in0.0 mm 0.07 in1.8 mm
03:06 AM 56.1°F13.4°C 54.4°F12.4°C 94% 1.0 mph S1.6 kmh S -- 30.15 in1021.0 mb 0.01 in0.3 mm 0.00 in0.0 mm 0.07 in1.8 mm
03:05 AM 56.1°F13.4°C 54.4°F12.4°C 94% 1.3 mph SSW2.1 kmh SSW -- 30.15 in1021.0 mb 0.01 in0.3 mm 0.00 in0.0 mm 0.07 in1.8 mm
03:03 AM 56.1°F13.4°C 54.4°F12.4°C 94% 1.6 mph W2.6 kmh W -- 30.15 in1021.0 mb 0.01 in0.3 mm 0.00 in0.0 mm 0.07 in1.8 mm
03:02 AM 56.1°F13.4°C 54.4°F12.4°C 94% 1.7 mph NE2.7 kmh NE -- 30.15 in1021.0 mb 0.01 in0.3 mm 0.00 in0.0 mm 0.07 in1.8 mm
03:01 AM 56.1°F13.4°C 54.4°F12.4°C 94% 1.6 mph SSW2.6 kmh SSW -- 30.15 in1021.0 mb 0.01 in0.3 mm 0.00 in0.0 mm 0.07 in1.8 mm
03:00 AM 56.1°F13.4°C 54.4°F12.4°C 94% 1.8 mph 2.9 kmh -- 30.15 in1021.0 mb 0.01 in0.3 mm 0.00 in0.0 mm 0.07 in1.8 mm
02:58 AM 56.1°F13.4°C 54.4°F12.4°C 94% 2.3 mph NW3.7 kmh NW 3.2 mph5.1 kmh 30.15 in1021.0 mb 0.01 in0.3 mm 0.00 in0.0 mm 0.07 in1.8 mm
02:57 AM 56.1°F13.4°C 54.4°F12.4°C 94% 1.7 mph ENE2.7 kmh ENE -- 30.15 in1021.0 mb 0.02 in0.5 mm 0.00 in0.0 mm 0.07 in1.8 mm
02:56 AM 56.1°F13.4°C 54.4°F12.4°C 94% 1.6 mph 2.6 kmh -- 30.15 in1021.0 mb 0.02 in0.5 mm 0.00 in0.0 mm 0.07 in1.8 mm
02:55 AM 56.1°F13.4°C 54.4°F12.4°C 94% 1.7 mph NNE2.7 kmh NNE -- 30.15 in1021.0 mb 0.02 in0.5 mm 0.00 in0.0 mm 0.07 in1.8 mm
02:53 AM 56.1°F13.4°C 54.4°F12.4°C 94% 1.7 mph WNW2.7 kmh WNW -- 30.15 in1021.0 mb 0.02 in0.5 mm 0.00 in0.0 mm 0.07 in1.8 mm
02:52 AM 56.1°F13.4°C 54.4°F12.4°C 94% 1.4 mph NNW2.3 kmh NNW -- 30.15 in1021.0 mb 0.02 in0.5 mm 0.60 in15.2 mm 0.07 in1.8 mm
02:51 AM 56.1°F13.4°C 54.4°F12.4°C 94% 0.8 mph NNW1.3 kmh NNW -- 30.15 in1021.0 mb 0.01 in0.3 mm 0.00 in0.0 mm 0.06 in1.5 mm
02:50 AM 56.1°F13.4°C 54.4°F12.4°C 94% 0.2 mph NW0.3 kmh NW -- 30.15 in1021.0 mb 0.01 in0.3 mm 0.00 in0.0 mm 0.06 in1.5 mm
02:48 AM 56.1°F13.4°C 54.4°F12.4°C 94% Calm Calm -- 30.15 in1021.0 mb 0.01 in0.3 mm 0.00 in0.0 mm 0.06 in1.5 mm
02:47 AM 56.1°F13.4°C 54.1°F12.3°C 93% 0.7 mph S1.1 kmh S -- 30.15 in1021.0 mb 0.02 in0.5 mm 0.00 in0.0 mm 0.06 in1.5 mm
02:46 AM 56.1°F13.4°C 54.1°F12.3°C 93% 0.8 mph NW1.3 kmh NW -- 30.15 in1021.0 mb 0.02 in0.5 mm 0.00 in0.0 mm 0.06 in1.5 mm
02:45 AM 56.1°F13.4°C 54.1°F12.3°C 93% 0.5 mph SSW0.8 kmh SSW -- 30.15 in1021.0 mb 0.02 in0.5 mm 0.00 in0.0 mm 0.06 in1.5 mm
02:43 AM 56.1°F13.4°C 54.1°F12.3°C 93% 0.4 mph 0.6 kmh 1.1 mph1.8 kmh 30.15 in1021.0 mb 0.02 in0.5 mm 0.00 in0.0 mm 0.06 in1.5 mm
02:42 AM 56.1°F13.4°C 54.1°F12.3°C 93% 1.3 mph 2.1 kmh -- 30.16 in1021.3 mb 0.02 in0.5 mm 0.00 in0.0 mm 0.06 in1.5 mm
02:41 AM 56.1°F13.4°C 54.1°F12.3°C 93% 1.4 mph NE2.3 kmh NE -- 30.16 in1021.3 mb 0.02 in0.5 mm 0.00 in0.0 mm 0.06 in1.5 mm
02:40 AM 56.1°F13.4°C 54.1°F12.3°C 93% 0.8 mph NE1.3 kmh NE -- 30.16 in1021.3 mb 0.02 in0.5 mm 0.00 in0.0 mm 0.06 in1.5 mm
02:38 AM 56.1°F13.4°C 54.1°F12.3°C 93% 0.3 mph S0.5 kmh S -- 30.16 in1021.3 mb 0.02 in0.5 mm 0.00 in0.0 mm 0.06 in1.5 mm
02:37 AM 56.1°F13.4°C 54.1°F12.3°C 93% Calm Calm -- 30.16 in1021.3 mb 0.02 in0.5 mm 0.00 in0.0 mm 0.06 in1.5 mm
02:36 AM 56.1°F13.4°C 54.1°F12.3°C 93% Calm Calm -- 30.16 in1021.3 mb 0.02 in0.5 mm 0.00 in0.0 mm 0.06 in1.5 mm
02:35 AM 56.1°F13.4°C 54.1°F12.3°C 93% Calm Calm -- 30.16 in1021.3 mb 0.02 in0.5 mm 0.00 in0.0 mm 0.06 in1.5 mm
02:33 AM 56.1°F13.4°C 54.1°F12.3°C 93% Calm Calm -- 30.16 in1021.3 mb 0.02 in0.5 mm 0.00 in0.0 mm 0.06 in1.5 mm
02:32 AM 56.1°F13.4°C 54.1°F12.3°C 93% 0.2 mph SSE0.3 kmh SSE 1.7 mph2.7 kmh 30.16 in1021.3 mb 0.02 in0.5 mm 0.00 in0.0 mm 0.06 in1.5 mm
02:31 AM 56.1°F13.4°C 54.1°F12.3°C 93% Calm Calm -- 30.16 in1021.3 mb 0.02 in0.5 mm 0.00 in0.0 mm 0.06 in1.5 mm
02:30 AM 56.1°F13.4°C 54.1°F12.3°C 93% Calm Calm -- 30.16 in1021.3 mb 0.02 in0.5 mm 0.00 in0.0 mm 0.06 in1.5 mm
02:28 AM 56.1°F13.4°C 54.1°F12.3°C 93% Calm Calm -- 30.16 in1021.3 mb 0.02 in0.5 mm 0.00 in0.0 mm 0.06 in1.5 mm
02:27 AM 56.1°F13.4°C 54.1°F12.3°C 93% 0.6 mph S1.0 kmh S -- 30.16 in1021.3 mb 0.02 in0.5 mm 0.00 in0.0 mm 0.06 in1.5 mm
02:26 AM 56.1°F13.4°C 54.1°F12.3°C 93% 0.8 mph S1.3 kmh S -- 30.16 in1021.3 mb 0.03 in0.8 mm 0.00 in0.0 mm 0.06 in1.5 mm
02:25 AM 56.1°F13.4°C 54.1°F12.3°C 93% 0.2 mph SSW0.3 kmh SSW -- 30.16 in1021.3 mb 0.03 in0.8 mm 0.00 in0.0 mm 0.06 in1.5 mm
02:23 AM 56.1°F13.4°C 54.1°F12.3°C 93% 0.9 mph SSE1.4 kmh SSE -- 30.16 in1021.3 mb 0.03 in0.8 mm 0.00 in0.0 mm 0.06 in1.5 mm
02:22 AM 56.1°F13.4°C 54.1°F12.3°C 93% 1.3 mph ESE2.1 kmh ESE -- 30.16 in1021.3 mb 0.03 in0.8 mm 0.00 in0.0 mm 0.06 in1.5 mm
02:21 AM 56.1°F13.4°C 54.1°F12.3°C 93% 1.3 mph SW2.1 kmh SW -- 30.16 in1021.3 mb 0.03 in0.8 mm 0.00 in0.0 mm 0.06 in1.5 mm
02:20 AM 56.1°F13.4°C 54.1°F12.3°C 93% 1.3 mph S2.1 kmh S -- 30.16 in1021.3 mb 0.03 in0.8 mm 0.00 in0.0 mm 0.06 in1.5 mm
02:18 AM 56.1°F13.4°C 54.1°F12.3°C 93% 2.2 mph SW3.5 kmh SW -- 30.15 in1021.0 mb 0.03 in0.8 mm 0.00 in0.0 mm 0.06 in1.5 mm
02:17 AM 56.1°F13.4°C 54.1°F12.3°C 93% 2.3 mph S3.7 kmh S -- 30.15 in1021.0 mb 0.03 in0.8 mm 0.00 in0.0 mm 0.06 in1.5 mm
02:16 AM 56.1°F13.4°C 54.1°F12.3°C 93% 1.0 mph WSW1.6 kmh WSW -- 30.15 in1021.0 mb 0.03 in0.8 mm 0.00 in0.0 mm 0.06 in1.5 mm
02:15 AM 56.1°F13.4°C 54.1°F12.3°C 93% 1.0 mph S1.6 kmh S -- 30.15 in1021.0 mb 0.03 in0.8 mm 0.00 in0.0 mm 0.06 in1.5 mm
02:13 AM 56.1°F13.4°C 54.1°F12.3°C 93% 1.1 mph SSW1.8 kmh SSW -- 30.15 in1021.0 mb 0.03 in0.8 mm 0.00 in0.0 mm 0.06 in1.5 mm
02:12 AM 56.1°F13.4°C 54.1°F12.3°C 93% 1.4 mph SSE2.3 kmh SSE -- 30.15 in1021.0 mb 0.03 in0.8 mm 0.00 in0.0 mm 0.06 in1.5 mm
02:11 AM 56.1°F13.4°C 54.1°F12.3°C 93% 1.4 mph SSW2.3 kmh SSW -- 30.15 in1021.0 mb 0.03 in0.8 mm 0.00 in0.0 mm 0.06 in1.5 mm
02:10 AM 56.1°F13.4°C 54.1°F12.3°C 93% 1.0 mph ESE1.6 kmh ESE -- 30.15 in1021.0 mb 0.03 in0.8 mm 0.00 in0.0 mm 0.06 in1.5 mm
02:08 AM 56.1°F13.4°C 54.1°F12.3°C 93% 1.3 mph S2.1 kmh S 1.7 mph2.7 kmh 30.15 in1021.0 mb 0.04 in1.0 mm 0.00 in0.0 mm 0.06 in1.5 mm
02:07 AM 56.1°F13.4°C 54.1°F12.3°C 93% 1.4 mph SSW2.3 kmh SSW -- 30.15 in1021.0 mb 0.04 in1.0 mm 0.00 in0.0 mm 0.06 in1.5 mm
02:06 AM 56.1°F13.4°C 54.1°F12.3°C 93% 1.4 mph SW2.3 kmh SW -- 30.15 in1021.0 mb 0.04 in1.0 mm 0.00 in0.0 mm 0.06 in1.5 mm
02:05 AM 56.1°F13.4°C 54.1°F12.3°C 93% 1.6 mph SSW2.6 kmh SSW 2.7 mph4.3 kmh 30.15 in1021.0 mb 0.04 in1.0 mm 0.00 in0.0 mm 0.06 in1.5 mm
02:03 AM 56.1°F13.4°C 54.1°F12.3°C 93% 1.5 mph 2.4 kmh -- 30.15 in1021.0 mb 0.04 in1.0 mm 0.00 in0.0 mm 0.06 in1.5 mm
02:02 AM 56.1°F13.4°C 54.1°F12.3°C 93% 1.0 mph ESE1.6 kmh ESE -- 30.15 in1021.0 mb 0.04 in1.0 mm 0.00 in0.0 mm 0.06 in1.5 mm
02:01 AM 56.1°F13.4°C 54.1°F12.3°C 93% 1.3 mph SSW2.1 kmh SSW -- 30.15 in1021.0 mb 0.04 in1.0 mm 0.00 in0.0 mm 0.06 in1.5 mm
02:00 AM 56.1°F13.4°C 54.1°F12.3°C 93% 2.1 mph SSW3.4 kmh SSW -- 30.15 in1021.0 mb 0.04 in1.0 mm 0.00 in0.0 mm 0.06 in1.5 mm
01:58 AM 56.1°F13.4°C 54.1°F12.3°C 93% 1.3 mph NNW2.1 kmh NNW -- 30.15 in1021.0 mb 0.04 in1.0 mm 0.00 in0.0 mm 0.05 in1.3 mm
01:57 AM 56.1°F13.4°C 54.1°F12.3°C 93% 0.5 mph S0.8 kmh S -- 30.15 in1021.0 mb 0.04 in1.0 mm 0.00 in0.0 mm 0.05 in1.3 mm
01:56 AM 56.1°F13.4°C 54.1°F12.3°C 93% 0.6 mph SE1.0 kmh SE -- 30.15 in1021.0 mb 0.04 in1.0 mm 0.00 in0.0 mm 0.05 in1.3 mm
01:55 AM 56.1°F13.4°C 54.1°F12.3°C 93% 0.9 mph S1.4 kmh S -- 30.15 in1021.0 mb 0.04 in1.0 mm 0.00 in0.0 mm 0.05 in1.3 mm
01:53 AM 56.1°F13.4°C 54.1°F12.3°C 93% 1.7 mph SSW2.7 kmh SSW -- 30.15 in1021.0 mb 0.04 in1.0 mm 0.00 in0.0 mm 0.05 in1.3 mm
01:52 AM 56.1°F13.4°C 54.1°F12.3°C 93% 0.9 mph SSE1.4 kmh SSE -- 30.15 in1021.0 mb 0.04 in1.0 mm 0.00 in0.0 mm 0.05 in1.3 mm
01:51 AM 56.1°F13.4°C 54.1°F12.3°C 93% Calm Calm -- 30.15 in1021.0 mb 0.04 in1.0 mm 0.00 in0.0 mm 0.05 in1.3 mm
01:50 AM 56.1°F13.4°C 54.1°F12.3°C 93% Calm Calm -- 30.15 in1021.0 mb 0.04 in1.0 mm 0.00 in0.0 mm 0.05 in1.3 mm
01:48 AM 56.1°F13.4°C 54.1°F12.3°C 93% Calm Calm -- 30.15 in1021.0 mb 0.04 in1.0 mm 0.60 in15.2 mm 0.05 in1.3 mm
01:47 AM 56.1°F13.4°C 54.1°F12.3°C 93% Calm Calm -- 30.15 in1021.0 mb 0.03 in0.8 mm 0.00 in0.0 mm 0.04 in1.0 mm
01:46 AM 56.1°F13.4°C 54.1°F12.3°C 93% Calm Calm -- 30.15 in1021.0 mb 0.03 in0.8 mm 0.00 in0.0 mm 0.04 in1.0 mm
01:45 AM 56.1°F13.4°C 54.1°F12.3°C 93% Calm Calm -- 30.15 in1021.0 mb 0.03 in0.8 mm 0.00 in0.0 mm 0.04 in1.0 mm
01:43 AM 56.1°F13.4°C 54.1°F12.3°C 93% Calm Calm -- 30.15 in1021.0 mb 0.03 in0.8 mm 0.00 in0.0 mm 0.04 in1.0 mm
01:42 AM 56.1°F13.4°C 54.1°F12.3°C 93% 0.3 mph S0.5 kmh S -- 30.15 in1021.0 mb 0.03 in0.8 mm 0.00 in0.0 mm 0.04 in1.0 mm
01:41 AM 56.1°F13.4°C 54.1°F12.3°C 93% 0.6 mph SW1.0 kmh SW -- 30.15 in1021.0 mb 0.03 in0.8 mm 0.00 in0.0 mm 0.04 in1.0 mm
01:40 AM 56.1°F13.4°C 54.1°F12.3°C 93% 1.4 mph SSE2.3 kmh SSE 2.2 mph3.5 kmh 30.15 in1021.0 mb 0.03 in0.8 mm 0.00 in0.0 mm 0.04 in1.0 mm
01:38 AM 56.1°F13.4°C 54.1°F12.3°C 93% 0.9 mph WSW1.4 kmh WSW -- 30.15 in1021.0 mb 0.03 in0.8 mm 0.00 in0.0 mm 0.04 in1.0 mm
01:37 AM 56.1°F13.4°C 54.1°F12.3°C 93% 0.2 mph SW0.3 kmh SW -- 30.15 in1021.0 mb 0.03 in0.8 mm 0.00 in0.0 mm 0.04 in1.0 mm
01:36 AM 56.1°F13.4°C 54.1°F12.3°C 93% 1.0 mph ESE1.6 kmh ESE -- 30.15 in1021.0 mb 0.03 in0.8 mm 0.00 in0.0 mm 0.04 in1.0 mm
01:35 AM 56.1°F13.4°C 54.1°F12.3°C 93% 1.4 mph SW2.3 kmh SW -- 30.15 in1021.0 mb 0.03 in0.8 mm 0.00 in0.0 mm 0.04 in1.0 mm
01:33 AM 55.9°F13.3°C 53.9°F12.2°C 93% 1.3 mph SSE2.1 kmh SSE -- 30.15 in1021.0 mb 0.03 in0.8 mm 0.00 in0.0 mm 0.04 in1.0 mm
01:32 AM 55.9°F13.3°C 53.9°F12.2°C 93% 1.6 mph SSE2.6 kmh SSE -- 30.15 in1021.0 mb 0.03 in0.8 mm 0.00 in0.0 mm 0.04 in1.0 mm
01:31 AM 55.9°F13.3°C 53.9°F12.2°C 93% 2.1 mph SSW3.4 kmh SSW -- 30.16 in1021.3 mb 0.03 in0.8 mm 0.00 in0.0 mm 0.04 in1.0 mm
01:30 AM 55.9°F13.3°C 53.9°F12.2°C 93% 1.9 mph S3.1 kmh S -- 30.16 in1021.3 mb 0.03 in0.8 mm 0.00 in0.0 mm 0.04 in1.0 mm
01:28 AM 55.9°F13.3°C 53.9°F12.2°C 93% 1.3 mph SSE2.1 kmh SSE -- 30.16 in1021.3 mb 0.03 in0.8 mm 0.00 in0.0 mm 0.04 in1.0 mm
01:27 AM 55.9°F13.3°C 53.9°F12.2°C 93% 1.3 mph SSE2.1 kmh SSE -- 30.16 in1021.3 mb 0.03 in0.8 mm 0.60 in15.2 mm 0.04 in1.0 mm
01:26 AM 55.9°F13.3°C 53.9°F12.2°C 93% 1.2 mph ESE1.9 kmh ESE 1.7 mph2.7 kmh 30.16 in1021.3 mb 0.02 in0.5 mm 0.00 in0.0 mm 0.03 in0.8 mm
01:25 AM 55.9°F13.3°C 53.9°F12.2°C 93% 0.9 mph SSW1.4 kmh SSW -- 30.16 in1021.3 mb 0.02 in0.5 mm 0.00 in0.0 mm 0.03 in0.8 mm
01:23 AM 55.9°F13.3°C 53.9°F12.2°C 93% 1.0 mph SSE1.6 kmh SSE -- 30.16 in1021.3 mb 0.02 in0.5 mm 0.00 in0.0 mm 0.03 in0.8 mm
01:22 AM 55.9°F13.3°C 53.9°F12.2°C 93% 1.7 mph SSE2.7 kmh SSE -- 30.16 in1021.3 mb 0.02 in0.5 mm 0.00 in0.0 mm 0.03 in0.8 mm
01:21 AM 55.9°F13.3°C 53.9°F12.2°C 93% 1.4 mph SSE2.3 kmh SSE -- 30.16 in1021.3 mb 0.02 in0.5 mm 0.00 in0.0 mm 0.03 in0.8 mm
01:20 AM 55.9°F13.3°C 53.9°F12.2°C 93% 1.7 mph S2.7 kmh S -- 30.16 in1021.3 mb 0.02 in0.5 mm 0.00 in0.0 mm 0.03 in0.8 mm
01:18 AM 55.9°F13.3°C 53.9°F12.2°C 93% 1.9 mph SSW3.1 kmh SSW -- 30.16 in1021.3 mb 0.03 in0.8 mm 0.00 in0.0 mm 0.03 in0.8 mm
01:17 AM 55.9°F13.3°C 53.9°F12.2°C 93% 1.9 mph SW3.1 kmh SW -- 30.16 in1021.3 mb 0.03 in0.8 mm 0.00 in0.0 mm 0.03 in0.8 mm
01:16 AM 55.9°F13.3°C 53.9°F12.2°C 93% 2.0 mph S3.2 kmh S -- 30.16 in1021.3 mb 0.03 in0.8 mm 0.00 in0.0 mm 0.03 in0.8 mm
01:15 AM 55.9°F13.3°C 53.9°F12.2°C 93% 1.9 mph S3.1 kmh S -- 30.16 in1021.3 mb 0.03 in0.8 mm 0.00 in0.0 mm 0.03 in0.8 mm
01:13 AM 55.9°F13.3°C 53.9°F12.2°C 93% 1.9 mph SSE3.1 kmh SSE -- 30.16 in1021.3 mb 0.03 in0.8 mm 0.00 in0.0 mm 0.03 in0.8 mm
01:12 AM 55.9°F13.3°C 53.9°F12.2°C 93% 2.8 mph SSE4.5 kmh SSE -- 30.16 in1021.3 mb 0.03 in0.8 mm 0.00 in0.0 mm 0.03 in0.8 mm
01:11 AM 55.9°F13.3°C 53.9°F12.2°C 93% 2.7 mph S4.3 kmh S -- 30.16 in1021.3 mb 0.03 in0.8 mm 0.60 in15.2 mm 0.03 in0.8 mm
01:10 AM 55.9°F13.3°C 53.9°F12.2°C 93% 2.9 mph ESE4.7 kmh ESE -- 30.16 in1021.3 mb 0.02 in0.5 mm 0.00 in0.0 mm 0.02 in0.5 mm
01:08 AM 55.9°F13.3°C 53.9°F12.2°C 93% 2.8 mph ESE4.5 kmh ESE -- 30.16 in1021.3 mb 0.02 in0.5 mm 0.00 in0.0 mm 0.02 in0.5 mm
01:07 AM 55.9°F13.3°C 53.9°F12.2°C 93% 2.5 mph SSE4.0 kmh SSE -- 30.16 in1021.3 mb 0.02 in0.5 mm 0.00 in0.0 mm 0.02 in0.5 mm
01:06 AM 55.9°F13.3°C 53.9°F12.2°C 93% 2.9 mph SSE4.7 kmh SSE -- 30.16 in1021.3 mb 0.02 in0.5 mm 0.00 in0.0 mm 0.02 in0.5 mm
01:05 AM 55.9°F13.3°C 53.9°F12.2°C 93% 3.0 mph S4.8 kmh S 4.2 mph6.8 kmh 30.16 in1021.3 mb 0.02 in0.5 mm 0.00 in0.0 mm 0.02 in0.5 mm
01:03 AM 55.9°F13.3°C 53.9°F12.2°C 93% 2.9 mph S4.7 kmh S -- 30.16 in1021.3 mb 0.02 in0.5 mm 0.00 in0.0 mm 0.02 in0.5 mm
01:02 AM 55.9°F13.3°C 53.9°F12.2°C 93% 2.4 mph S3.9 kmh S -- 30.16 in1021.3 mb 0.02 in0.5 mm 0.00 in0.0 mm 0.02 in0.5 mm
01:01 AM 55.9°F13.3°C 53.9°F12.2°C 93% 2.4 mph SE3.9 kmh SE -- 30.16 in1021.3 mb 0.02 in0.5 mm 0.60 in15.2 mm 0.02 in0.5 mm
01:00 AM 55.8°F13.2°C 53.8°F12.1°C 93% 2.5 mph S4.0 kmh S -- 30.16 in1021.3 mb 0.01 in0.3 mm 0.00 in0.0 mm 0.01 in0.3 mm
12:58 AM 55.8°F13.2°C 53.8°F12.1°C 93% 2.7 mph SSW4.3 kmh SSW -- 30.16 in1021.3 mb 0.01 in0.3 mm 0.00 in0.0 mm 0.01 in0.3 mm
12:57 AM 55.8°F13.2°C 53.8°F12.1°C 93% 2.1 mph SSW3.4 kmh SSW -- 30.16 in1021.3 mb 0.01 in0.3 mm 0.00 in0.0 mm 0.01 in0.3 mm
12:56 AM 55.8°F13.2°C 53.8°F12.1°C 93% 2.1 mph S3.4 kmh S -- 30.16 in1021.3 mb 0.01 in0.3 mm 0.00 in0.0 mm 0.01 in0.3 mm
12:55 AM 55.8°F13.2°C 53.8°F12.1°C 93% 2.9 mph SW4.7 kmh SW -- 30.16 in1021.3 mb 0.01 in0.3 mm 0.00 in0.0 mm 0.01 in0.3 mm
12:53 AM 55.8°F13.2°C 53.8°F12.1°C 93% 3.4 mph SW5.5 kmh SW -- 30.16 in1021.3 mb 0.01 in0.3 mm 0.00 in0.0 mm 0.01 in0.3 mm
12:52 AM 55.8°F13.2°C 53.8°F12.1°C 93% 3.3 mph SSW5.3 kmh SSW -- 30.16 in1021.3 mb 0.01 in0.3 mm 0.00 in0.0 mm 0.01 in0.3 mm
12:51 AM 55.8°F13.2°C 53.8°F12.1°C 93% 2.5 mph SW4.0 kmh SW -- 30.16 in1021.3 mb 0.01 in0.3 mm 0.00 in0.0 mm 0.01 in0.3 mm
12:50 AM 55.8°F13.2°C 53.8°F12.1°C 93% 0.9 mph SSW1.4 kmh SSW 2.2 mph3.5 kmh 30.16 in1021.3 mb 0.01 in0.3 mm 0.00 in0.0 mm 0.01 in0.3 mm
12:48 AM 55.6°F13.1°C 53.6°F12.0°C 93% 0.9 mph S1.4 kmh S -- 30.16 in1021.3 mb 0.01 in0.3 mm 0.00 in0.0 mm 0.01 in0.3 mm
12:47 AM 55.6°F13.1°C 53.6°F12.0°C 93% 1.2 mph W1.9 kmh W -- 30.16 in1021.3 mb 0.01 in0.3 mm 0.00 in0.0 mm 0.01 in0.3 mm
12:46 AM 55.6°F13.1°C 53.6°F12.0°C 93% 0.8 mph SSE1.3 kmh SSE -- 30.16 in1021.3 mb 0.01 in0.3 mm 0.00 in0.0 mm 0.01 in0.3 mm
12:45 AM 55.6°F13.1°C 53.6°F12.0°C 93% 0.9 mph S1.4 kmh S -- 30.16 in1021.3 mb 0.01 in0.3 mm 0.00 in0.0 mm 0.01 in0.3 mm
12:43 AM 55.6°F13.1°C 53.6°F12.0°C 93% 1.0 mph W1.6 kmh W 2.7 mph4.3 kmh 30.16 in1021.3 mb 0.01 in0.3 mm 0.00 in0.0 mm 0.01 in0.3 mm
12:42 AM 55.6°F13.1°C 53.6°F12.0°C 93% 1.0 mph NE1.6 kmh NE -- 30.17 in1021.7 mb 0.01 in0.3 mm 0.00 in0.0 mm 0.01 in0.3 mm
12:41 AM 55.6°F13.1°C 53.6°F12.0°C 93% 1.5 mph SE2.4 kmh SE -- 30.17 in1021.7 mb 0.01 in0.3 mm 0.00 in0.0 mm 0.01 in0.3 mm
12:40 AM 55.6°F13.1°C 53.6°F12.0°C 93% 1.4 mph WNW2.3 kmh WNW -- 30.17 in1021.7 mb 0.01 in0.3 mm 0.00 in0.0 mm 0.01 in0.3 mm
12:38 AM 55.6°F13.1°C 53.6°F12.0°C 93% 1.0 mph NW1.6 kmh NW -- 30.17 in1021.7 mb 0.01 in0.3 mm 0.00 in0.0 mm 0.01 in0.3 mm
12:37 AM 55.6°F13.1°C 53.6°F12.0°C 93% 1.0 mph SW1.6 kmh SW -- 30.17 in1021.7 mb 0.01 in0.3 mm 0.00 in0.0 mm 0.01 in0.3 mm
12:36 AM 55.6°F13.1°C 53.6°F12.0°C 93% 1.9 mph S3.1 kmh S -- 30.17 in1021.7 mb 0.01 in0.3 mm 0.00 in0.0 mm 0.01 in0.3 mm
12:35 AM 55.6°F13.1°C 53.6°F12.0°C 93% 1.9 mph SSE3.1 kmh SSE -- 30.17 in1021.7 mb 0.01 in0.3 mm 0.00 in0.0 mm 0.01 in0.3 mm
12:33 AM 55.6°F13.1°C 53.6°F12.0°C 93% 1.9 mph SW3.1 kmh SW -- 30.17 in1021.7 mb 0.01 in0.3 mm 0.00 in0.0 mm 0.01 in0.3 mm
12:32 AM 55.6°F13.1°C 53.6°F12.0°C 93% 1.4 mph ENE2.3 kmh ENE -- 30.17 in1021.7 mb 0.01 in0.3 mm 0.00 in0.0 mm 0.01 in0.3 mm
12:31 AM 55.6°F13.1°C 53.6°F12.0°C 93% 1.2 mph SSW1.9 kmh SSW -- 30.18 in1022.0 mb 0.01 in0.3 mm 0.00 in0.0 mm 0.01 in0.3 mm
12:30 AM 55.6°F13.1°C 53.6°F12.0°C 93% 1.5 mph NW2.4 kmh NW -- 30.18 in1022.0 mb 0.01 in0.3 mm 0.00 in0.0 mm 0.01 in0.3 mm
12:28 AM 55.6°F13.1°C 53.6°F12.0°C 93% 1.6 mph SW2.6 kmh SW -- 30.18 in1022.0 mb 0.01 in0.3 mm 0.00 in0.0 mm 0.01 in0.3 mm
12:27 AM 55.8°F13.2°C 53.8°F12.1°C 93% 1.7 mph SSW2.7 kmh SSW -- 30.18 in1022.0 mb 0.01 in0.3 mm 0.00 in0.0 mm 0.01 in0.3 mm
12:26 AM 55.8°F13.2°C 53.8°F12.1°C 93% 0.9 mph E1.4 kmh E 2.2 mph3.5 kmh 30.18 in1022.0 mb 0.01 in0.3 mm 0.00 in0.0 mm 0.01 in0.3 mm
12:25 AM 55.8°F13.2°C 53.8°F12.1°C 93% 0.6 mph ESE1.0 kmh ESE 1.7 mph2.7 kmh 30.18 in1022.0 mb 0.01 in0.3 mm 0.00 in0.0 mm 0.01 in0.3 mm
12:23 AM 55.8°F13.2°C 53.8°F12.1°C 93% 1.2 mph SSW1.9 kmh SSW -- 30.18 in1022.0 mb 0.01 in0.3 mm 0.00 in0.0 mm 0.01 in0.3 mm
12:22 AM 55.8°F13.2°C 53.8°F12.1°C 93% 1.3 mph ESE2.1 kmh ESE -- 30.18 in1022.0 mb 0.01 in0.3 mm 0.00 in0.0 mm 0.01 in0.3 mm
12:21 AM 55.8°F13.2°C 53.8°F12.1°C 93% 1.6 mph S2.6 kmh S -- 30.18 in1022.0 mb 0.01 in0.3 mm 0.60 in15.2 mm 0.01 in0.3 mm
12:20 AM 55.9°F13.3°C 53.9°F12.2°C 93% 1.7 mph S2.7 kmh S 3.2 mph5.1 kmh 30.18 in1022.0 mb 0.00 in0.0 mm 0.00 in0.0 mm 0.00 in0.0 mm
12:18 AM 55.9°F13.3°C 53.9°F12.2°C 93% 1.2 mph S1.9 kmh S 1.7 mph2.7 kmh 30.18 in1022.0 mb 0.00 in0.0 mm 0.00 in0.0 mm 0.00 in0.0 mm
12:17 AM 55.9°F13.3°C 53.9°F12.2°C 93% 1.6 mph ESE2.6 kmh ESE -- 30.18 in1022.0 mb 0.00 in0.0 mm 0.00 in0.0 mm 0.00 in0.0 mm
12:16 AM 55.9°F13.3°C 53.9°F12.2°C 93% 2.3 mph S3.7 kmh S -- 30.18 in1022.0 mb 0.00 in0.0 mm 0.00 in0.0 mm 0.00 in0.0 mm
12:15 AM 55.9°F13.3°C 53.9°F12.2°C 93% 2.0 mph SSW3.2 kmh SSW -- 30.18 in1022.0 mb 0.00 in0.0 mm 0.00 in0.0 mm 0.00 in0.0 mm
12:13 AM 55.9°F13.3°C 53.9°F12.2°C 93% 1.4 mph SSW2.3 kmh SSW 2.7 mph4.3 kmh 30.18 in1022.0 mb 0.00 in0.0 mm 0.00 in0.0 mm 0.00 in0.0 mm
12:12 AM 55.9°F13.3°C 53.9°F12.2°C 93% 0.4 mph S0.6 kmh S 1.7 mph2.7 kmh 30.18 in1022.0 mb 0.00 in0.0 mm 0.00 in0.0 mm 0.00 in0.0 mm
12:11 AM 55.9°F13.3°C 53.9°F12.2°C 93% Calm Calm -- 30.18 in1022.0 mb 0.00 in0.0 mm 0.00 in0.0 mm 0.00 in0.0 mm
12:10 AM 55.9°F13.3°C 53.9°F12.2°C 93% 0.3 mph SSE0.5 kmh SSE -- 30.18 in1022.0 mb 0.00 in0.0 mm 0.00 in0.0 mm 0.00 in0.0 mm
12:08 AM 55.9°F13.3°C 53.9°F12.2°C 93% 0.6 mph 1.0 kmh -- 30.18 in1022.0 mb 0.00 in0.0 mm 0.00 in0.0 mm 0.00 in0.0 mm
12:07 AM 55.9°F13.3°C 53.9°F12.2°C 93% 0.3 mph NE0.5 kmh NE -- 30.18 in1022.0 mb 0.00 in0.0 mm 0.00 in0.0 mm 0.00 in0.0 mm
12:06 AM 55.9°F13.3°C 53.9°F12.2°C 93% 0.2 mph ENE0.3 kmh ENE -- 30.18 in1022.0 mb 0.00 in0.0 mm 0.00 in0.0 mm 0.00 in0.0 mm
12:05 AM 55.9°F13.3°C 53.9°F12.2°C 93% 0.3 mph SW0.5 kmh SW -- 30.18 in1022.0 mb 0.00 in0.0 mm 0.00 in0.0 mm 0.00 in0.0 mm
12:03 AM 55.9°F13.3°C 53.9°F12.2°C 93% Calm Calm -- 30.18 in1022.0 mb 0.00 in0.0 mm 0.00 in0.0 mm 0.00 in0.0 mm
12:02 AM 55.9°F13.3°C 53.9°F12.2°C 93% 0.5 mph W0.8 kmh W -- 30.18 in1022.0 mb 0.00 in0.0 mm 0.00 in0.0 mm 0.00 in0.0 mm
12:01 AM 55.9°F13.3°C 53.9°F12.2°C 93% 0.8 mph NNE1.3 kmh NNE -- 30.18 in1022.0 mb 0.00 in0.0 mm 0.00 in0.0 mm 0.00 in0.0 mm
12:00 AM 55.9°F13.3°C 53.9°F12.2°C 93% 0.6 mph WNW1.0 kmh WNW -- 30.18 in1022.0 mb 0.00 in0.0 mm 0.00 in0.0 mm 0.02 in0.5 mm